createdAt,value
2019-05-30T00:00:44.652Z,6.43
2019-05-30T00:03:15.253Z,7.07
2019-05-30T00:05:45.805Z,6.40
2019-05-30T00:08:16.301Z,6.07
2019-05-30T00:10:46.751Z,5.70
2019-05-30T00:13:17.319Z,5.37
2019-05-30T00:15:47.766Z,5.27
2019-05-30T00:18:18.232Z,5.77
2019-05-30T00:20:48.759Z,4.73
2019-05-30T00:23:19.251Z,5.10
2019-05-30T00:25:49.751Z,4.80
2019-05-30T00:28:20.208Z,4.80
2019-05-30T00:30:50.945Z,4.73
2019-05-30T00:33:21.476Z,4.60
2019-05-30T00:35:51.982Z,4.00
2019-05-30T00:38:22.431Z,4.40
2019-05-30T00:40:52.930Z,4.40
2019-05-30T00:43:23.524Z,4.37
2019-05-30T00:45:53.988Z,4.10
2019-05-30T00:48:24.493Z,4.63
2019-05-30T00:50:56.260Z,4.90
2019-05-30T00:53:26.960Z,4.50
2019-05-30T00:55:58.495Z,4.23
2019-05-30T00:58:29.089Z,4.23
2019-05-30T01:01:00.939Z,4.70
2019-05-30T01:03:31.533Z,4.43
2019-05-30T01:06:02.977Z,3.90
2019-05-30T01:08:33.580Z,3.60
2019-05-30T01:11:05.314Z,3.90
2019-05-30T01:13:35.829Z,3.63
2019-05-30T01:16:07.349Z,3.27
2019-05-30T01:18:37.955Z,4.17
2019-05-30T01:21:08.560Z,3.70
2019-05-30T01:23:44.029Z,3.67
2019-05-30T01:26:15.100Z,3.20
2019-05-30T01:28:45.569Z,3.57
2019-05-30T01:31:16.186Z,4.10
2019-05-30T01:33:46.632Z,3.93
2019-05-30T01:36:17.123Z,3.80
2019-05-30T01:38:47.586Z,3.70
2019-05-30T01:41:18.083Z,4.00
2019-05-30T01:43:48.536Z,4.00
2019-05-30T01:46:18.999Z,4.20
2019-05-30T01:48:49.489Z,3.80
2019-05-30T01:51:20.095Z,4.13
2019-05-30T01:53:50.576Z,4.20
2019-05-30T01:56:21.125Z,4.30
2019-05-30T01:58:51.593Z,4.23
2019-05-30T02:01:24.952Z,3.97
2019-05-30T02:03:54.235Z,3.83
2019-05-30T02:06:24.817Z,3.47
2019-05-30T02:08:55.293Z,3.30
2019-05-30T02:11:25.887Z,3.00
2019-05-30T02:13:56.338Z,3.57
2019-05-30T02:16:26.836Z,3.40
2019-05-30T02:18:57.280Z,3.60
2019-05-30T02:21:27.758Z,3.30
2019-05-30T02:23:58.252Z,3.30
2019-05-30T02:26:28.698Z,2.60
2019-05-30T02:28:59.957Z,3.00
2019-05-30T02:31:39.074Z,3.00
2019-05-30T02:34:03.001Z,3.80
2019-05-30T02:36:34.156Z,3.20
2019-05-30T02:39:07.397Z,3.60
2019-05-30T02:41:38.457Z,3.43
2019-05-30T02:44:10.250Z,3.33
2019-05-30T02:46:41.245Z,3.90
2019-05-30T02:49:13.887Z,3.57
2019-05-30T02:51:43.943Z,3.30
2019-05-30T02:54:14.405Z,3.60
2019-05-30T02:56:44.887Z,4.07
2019-05-30T02:59:15.330Z,3.83
2019-05-30T03:02:00.034Z,3.23
2019-05-30T03:04:17.979Z,3.23
2019-05-30T03:06:48.446Z,3.67
2019-05-30T03:09:19.053Z,3.43
2019-05-30T03:11:49.826Z,2.80
2019-05-30T03:14:20.502Z,3.20
2019-05-30T03:16:50.957Z,4.03
2019-05-30T03:19:21.573Z,3.17
2019-05-30T03:21:52.032Z,3.63
2019-05-30T03:24:22.649Z,3.70
2019-05-30T03:26:53.210Z,3.30
2019-05-30T03:29:23.868Z,3.37
2019-05-30T03:31:55.244Z,2.93
2019-05-30T03:34:28.762Z,3.37
2019-05-30T03:36:58.198Z,2.90
2019-05-30T03:39:28.790Z,3.20
2019-05-30T03:41:59.593Z,3.40
2019-05-30T03:44:30.034Z,3.43
2019-05-30T03:47:03.950Z,3.30
2019-05-30T03:49:37.411Z,3.37
2019-05-30T03:52:12.962Z,3.40
2019-05-30T03:54:43.310Z,2.77
2019-05-30T03:57:23.180Z,3.30
2019-05-30T04:00:00.057Z,3.20
2019-05-30T04:02:58.362Z,3.00
2019-05-30T04:05:31.221Z,2.70
2019-05-30T04:08:04.749Z,2.50
2019-05-30T04:10:39.230Z,3.00
2019-05-30T04:13:24.257Z,2.50
2019-05-30T04:15:54.731Z,2.80
2019-05-30T04:18:25.218Z,2.60
2019-05-30T04:20:55.683Z,3.10
2019-05-30T04:23:26.192Z,2.70
2019-05-30T04:26:00.272Z,2.67
2019-05-30T04:28:28.837Z,2.70
2019-05-30T04:30:59.304Z,2.50
2019-05-30T04:33:33.461Z,2.70
2019-05-30T04:36:02.022Z,2.50
2019-05-30T04:38:32.487Z,2.60
2019-05-30T04:41:03.013Z,3.07
2019-05-30T04:43:33.491Z,2.30
2019-05-30T04:46:03.992Z,2.30
2019-05-30T04:48:34.484Z,2.57
2019-05-30T04:51:05.192Z,2.37
2019-05-30T04:53:35.703Z,2.83
2019-05-30T04:56:06.296Z,2.67
2019-05-30T04:58:41.505Z,2.80
2019-05-30T05:01:09.150Z,2.93
2019-05-30T05:03:45.722Z,2.93
2019-05-30T05:06:13.786Z,2.67
2019-05-30T05:08:44.671Z,2.97
2019-05-30T05:11:18.704Z,2.73
2019-05-30T05:13:47.426Z,2.50
2019-05-30T05:16:26.090Z,2.50
2019-05-30T05:18:50.084Z,2.60
2019-05-30T05:21:21.016Z,2.73
2019-05-30T05:23:51.549Z,2.50
2019-05-30T05:26:22.075Z,2.47
2019-05-30T05:28:52.580Z,3.30
2019-05-30T05:31:24.433Z,2.90
2019-05-30T05:33:57.011Z,2.40
2019-05-30T05:36:27.162Z,4.00
2019-05-30T05:38:57.674Z,2.63
2019-05-30T05:41:28.612Z,2.57
2019-05-30T05:43:59.126Z,3.37
2019-05-30T05:46:29.602Z,2.80
2019-05-30T05:49:00.205Z,2.60
2019-05-30T05:51:30.744Z,1.93
2019-05-30T05:54:01.230Z,2.30
2019-05-30T05:56:31.756Z,2.43
2019-05-30T05:59:02.261Z,2.33
2019-05-30T06:01:32.753Z,2.50
2019-05-30T06:04:12.805Z,2.63
2019-05-30T06:06:35.508Z,2.17
2019-05-30T06:09:06.830Z,3.20
2019-05-30T06:11:37.330Z,2.43
2019-05-30T06:14:07.785Z,2.27
2019-05-30T06:16:38.408Z,3.10
2019-05-30T06:19:09.022Z,3.33
2019-05-30T06:21:52.982Z,2.53
2019-05-30T06:24:11.833Z,3.07
2019-05-30T06:26:42.335Z,2.53
2019-05-30T06:29:12.852Z,2.10
2019-05-30T06:31:43.328Z,3.27
2019-05-30T06:34:28.148Z,2.93
2019-05-30T06:36:45.996Z,2.50
2019-05-30T06:39:16.456Z,2.53
2019-05-30T06:41:46.966Z,2.10
2019-05-30T06:44:17.430Z,2.00
2019-05-30T06:46:47.950Z,3.17
2019-05-30T06:49:18.430Z,2.47
2019-05-30T06:51:48.915Z,3.50
2019-05-30T06:54:19.405Z,1.90
2019-05-30T06:56:50.023Z,2.00
2019-05-30T06:59:21.391Z,3.27
2019-05-30T07:01:52.387Z,2.80
2019-05-30T07:04:23.823Z,2.27
2019-05-30T07:06:55.346Z,2.10
2019-05-30T07:09:26.816Z,2.57
2019-05-30T07:11:57.426Z,2.80
2019-05-30T07:14:29.233Z,2.40
2019-05-30T07:16:59.874Z,3.57
2019-05-30T07:19:31.567Z,2.03
2019-05-30T07:22:02.238Z,2.27
2019-05-30T07:24:33.750Z,3.50
2019-05-30T07:27:04.608Z,2.20
2019-05-30T07:29:35.116Z,2.20
2019-05-30T07:32:05.812Z,1.90
2019-05-30T07:34:36.525Z,2.13
2019-05-30T07:37:06.977Z,2.70
2019-05-30T07:39:37.708Z,2.00
2019-05-30T07:42:08.332Z,2.43
2019-05-30T07:44:38.796Z,2.07
2019-05-30T07:47:09.512Z,3.60
2019-05-30T07:49:40.021Z,1.90
2019-05-30T07:52:11.771Z,2.00
2019-05-30T07:54:42.425Z,1.93
2019-05-30T07:57:12.909Z,1.73
2019-05-30T07:59:43.382Z,2.23
2019-05-30T08:02:13.889Z,2.50
2019-05-30T08:04:46.876Z,2.23
2019-05-30T08:07:16.597Z,2.20
2019-05-30T08:09:47.185Z,2.30
2019-05-30T08:12:17.661Z,2.70
2019-05-30T08:14:49.697Z,2.73
2019-05-30T08:17:20.159Z,2.00
2019-05-30T08:19:50.685Z,2.03
2019-05-30T08:22:21.200Z,1.83
2019-05-30T08:24:51.699Z,1.80
2019-05-30T08:27:22.171Z,1.77
2019-05-30T08:29:52.700Z,1.87
2019-05-30T08:32:23.269Z,1.87
2019-05-30T08:34:53.777Z,2.10
2019-05-30T08:37:24.516Z,2.50
2019-05-30T08:39:55.155Z,2.20
2019-05-30T08:42:27.885Z,1.97
2019-05-30T08:44:57.863Z,1.90
2019-05-30T08:47:29.714Z,1.77
2019-05-30T08:50:00.340Z,1.90
2019-05-30T08:52:32.305Z,1.80
2019-05-30T08:55:02.885Z,2.10
2019-05-30T08:57:34.920Z,1.87
2019-05-30T09:00:07.034Z,1.90
2019-05-30T09:02:38.693Z,1.77
2019-05-30T09:05:10.022Z,1.80
2019-05-30T09:07:40.542Z,1.50
2019-05-30T09:10:11.758Z,2.20
2019-05-30T09:12:45.515Z,1.83
2019-05-30T09:15:15.253Z,1.80
2019-05-30T09:17:46.783Z,1.60
2019-05-30T09:20:17.858Z,1.87
2019-05-30T09:22:48.359Z,2.20
2019-05-30T09:25:19.372Z,2.53
2019-05-30T09:27:49.883Z,3.17
2019-05-30T09:30:22.545Z,2.03
2019-05-30T09:32:53.026Z,2.13
2019-05-30T09:35:23.728Z,1.97
2019-05-30T09:37:54.188Z,2.30
2019-05-30T09:40:25.319Z,2.70
2019-05-30T09:42:55.810Z,2.63
2019-05-30T09:45:26.636Z,2.80
2019-05-30T09:47:57.122Z,1.70
2019-05-30T09:50:27.804Z,1.90
2019-05-30T09:52:58.302Z,2.20
2019-05-30T09:55:29.038Z,2.53
2019-05-30T09:57:59.620Z,1.90
2019-05-30T10:00:32.432Z,1.90
2019-05-30T10:03:03.024Z,2.40
2019-05-30T10:05:33.578Z,3.50
2019-05-30T10:08:04.060Z,2.40
2019-05-30T10:10:34.738Z,2.90
2019-05-30T10:13:05.358Z,2.43
2019-05-30T10:15:35.933Z,2.00
2019-05-30T10:18:06.554Z,2.10
2019-05-30T10:20:38.221Z,2.10
2019-05-30T10:23:08.743Z,2.10
2019-05-30T10:25:39.196Z,3.60
2019-05-30T10:28:09.710Z,2.53
2019-05-30T10:30:40.302Z,2.33
2019-05-30T10:33:10.774Z,2.30
2019-05-30T10:35:41.297Z,2.23
2019-05-30T10:38:11.764Z,2.30
2019-05-30T10:40:42.413Z,2.90
2019-05-30T10:43:12.883Z,2.30
2019-05-30T10:45:43.419Z,2.30
2019-05-30T10:48:14.000Z,2.60
2019-05-30T10:50:44.615Z,2.17
2019-05-30T10:53:15.284Z,2.43
2019-05-30T10:55:47.067Z,2.35
2019-05-30T10:58:18.112Z,2.27
2019-05-30T11:00:53.477Z,2.03
2019-05-30T11:03:25.629Z,4.07
2019-05-30T11:06:14.763Z,2.47
2019-05-30T11:08:46.188Z,2.83
2019-05-30T11:11:18.265Z,2.43
2019-05-30T11:13:48.999Z,2.30
2019-05-30T11:16:19.462Z,2.00
2019-05-30T11:18:51.394Z,2.57
2019-05-30T11:21:22.264Z,2.07
2019-05-30T11:23:52.767Z,2.57
2019-05-30T11:26:23.235Z,2.40
2019-05-30T11:28:54.782Z,2.43
2019-05-30T11:31:25.298Z,2.20
2019-05-30T11:33:57.155Z,2.60
2019-05-30T11:36:27.655Z,2.27
2019-05-30T11:38:59.397Z,2.23
2019-05-30T11:41:29.984Z,2.17
2019-05-30T11:44:03.967Z,2.10
2019-05-30T11:46:32.709Z,2.10
2019-05-30T11:49:03.573Z,2.47
2019-05-30T11:51:34.081Z,2.60
2019-05-30T11:54:05.024Z,2.33
2019-05-30T11:56:36.025Z,2.80
2019-05-30T11:59:06.979Z,2.57
2019-05-30T12:01:37.483Z,2.20
2019-05-30T12:04:07.950Z,2.53
2019-05-30T12:06:38.471Z,2.67
2019-05-30T12:09:09.468Z,3.50
2019-05-30T12:11:39.976Z,3.17
2019-05-30T12:14:10.484Z,2.90
2019-05-30T12:16:40.940Z,2.50
2019-05-30T12:19:11.869Z,2.77
2019-05-30T12:21:42.997Z,3.20
2019-05-30T12:24:13.459Z,2.67
2019-05-30T12:26:43.958Z,2.67
2019-05-30T12:29:14.488Z,2.53
2019-05-30T12:31:45.094Z,2.83
2019-05-30T12:34:15.557Z,2.77
2019-05-30T12:36:46.072Z,2.53
2019-05-30T12:39:16.552Z,2.50
2019-05-30T12:41:47.064Z,2.50
2019-05-30T12:44:17.572Z,2.50
2019-05-30T12:46:48.069Z,3.20
2019-05-30T12:49:19.283Z,2.80
2019-05-30T12:51:50.451Z,2.80
2019-05-30T12:54:21.463Z,2.73
2019-05-30T12:56:52.602Z,2.70
2019-05-30T12:59:23.273Z,2.77
2019-05-30T13:01:54.801Z,2.77
2019-05-30T13:04:25.397Z,2.60
2019-05-30T13:06:57.593Z,2.50
2019-05-30T13:09:28.157Z,2.43
2019-05-30T13:11:58.647Z,2.77
2019-05-30T13:14:29.203Z,2.70
2019-05-30T13:16:59.865Z,2.93
2019-05-30T13:19:30.329Z,3.13
2019-05-30T13:22:01.382Z,2.73
2019-05-30T13:24:32.103Z,2.80
2019-05-30T13:27:03.786Z,2.57
2019-05-30T13:29:34.441Z,3.00
2019-05-30T13:32:05.183Z,2.73
2019-05-30T13:34:35.758Z,2.77
2019-05-30T13:37:07.176Z,2.77
2019-05-30T13:39:37.715Z,2.83
2019-05-30T13:42:08.205Z,2.90
2019-05-30T13:44:38.801Z,2.70
2019-05-30T13:47:09.374Z,2.80
2019-05-30T13:49:39.858Z,3.33
2019-05-30T13:52:11.249Z,3.17
2019-05-30T13:54:41.734Z,3.20
2019-05-30T13:57:12.212Z,3.10
2019-05-30T13:59:42.672Z,3.23
2019-05-30T14:02:13.176Z,3.03
2019-05-30T14:04:43.700Z,3.07
2019-05-30T14:07:15.594Z,3.23
2019-05-30T14:09:46.161Z,2.90
2019-05-30T14:12:16.692Z,3.20
2019-05-30T14:14:47.176Z,3.00
2019-05-30T14:17:17.717Z,3.13
2019-05-30T14:19:48.280Z,3.30
2019-05-30T14:22:18.788Z,2.90
2019-05-30T14:24:49.303Z,3.13
2019-05-30T14:27:19.932Z,3.20
2019-05-30T14:29:50.420Z,3.40
2019-05-30T14:32:21.046Z,3.60
2019-05-30T14:34:51.553Z,3.20
2019-05-30T14:37:22.076Z,3.00
2019-05-30T14:39:52.538Z,3.10
2019-05-30T14:42:23.037Z,3.30
2019-05-30T14:44:53.530Z,3.20
2019-05-30T14:47:23.980Z,3.27
2019-05-30T14:49:54.439Z,3.53
2019-05-30T14:52:24.949Z,3.20
2019-05-30T14:54:55.445Z,3.10
2019-05-30T14:57:25.921Z,3.37
2019-05-30T14:59:56.420Z,3.77
2019-05-30T15:02:26.921Z,3.73
2019-05-30T15:04:57.415Z,3.50
2019-05-30T15:07:27.873Z,3.27
2019-05-30T15:09:58.385Z,3.60
2019-05-30T15:12:28.844Z,3.60
2019-05-30T15:14:59.333Z,3.70
2019-05-30T15:17:29.788Z,4.20
2019-05-30T15:20:00.280Z,4.13
2019-05-30T15:22:30.739Z,4.20
2019-05-30T15:25:01.260Z,3.80
2019-05-30T15:27:31.747Z,4.20
2019-05-30T15:30:02.272Z,3.70
2019-05-30T15:32:32.788Z,4.10
2019-05-30T15:35:03.256Z,3.93
2019-05-30T15:37:33.715Z,4.07
2019-05-30T15:40:04.275Z,4.20
2019-05-30T15:42:34.755Z,4.20
2019-05-30T15:45:06.061Z,4.50
2019-05-30T15:47:36.511Z,4.17
2019-05-30T15:50:08.319Z,4.70
2019-05-30T15:52:39.133Z,4.47
2019-05-30T15:55:11.177Z,4.70
2019-05-30T15:57:41.855Z,4.60
2019-05-30T16:00:14.092Z,4.33
2019-05-30T16:02:44.785Z,4.80
2019-05-30T16:05:16.694Z,4.70
2019-05-30T16:07:47.303Z,5.50
2019-05-30T16:10:18.973Z,6.07
2019-05-30T16:12:49.451Z,5.10
2019-05-30T16:15:19.940Z,4.90
2019-05-30T16:17:50.491Z,4.60
2019-05-30T16:20:22.037Z,4.30
2019-05-30T16:22:52.554Z,3.90
2019-05-30T16:25:23.018Z,4.50
2019-05-30T16:27:53.512Z,4.40
2019-05-30T16:30:26.048Z,4.17
2019-05-30T16:32:56.461Z,4.20
2019-05-30T16:35:26.919Z,3.97
2019-05-30T16:37:57.412Z,3.93
2019-05-30T16:40:27.868Z,4.30
2019-05-30T16:42:58.454Z,3.97
2019-05-30T16:45:28.904Z,4.23
2019-05-30T16:47:59.367Z,4.10
2019-05-30T16:50:29.853Z,4.10
2019-05-30T16:53:00.308Z,4.70
2019-05-30T16:55:30.809Z,5.03
2019-05-30T16:58:01.363Z,5.17
2019-05-30T17:00:31.821Z,5.50
2019-05-30T17:03:02.308Z,4.43
2019-05-30T17:05:32.776Z,5.07
2019-05-30T17:08:03.239Z,5.27
2019-05-30T17:10:33.859Z,5.40
2019-05-30T17:13:04.419Z,5.47
2019-05-30T17:15:35.007Z,5.70
2019-05-30T17:18:05.755Z,5.57
2019-05-30T17:20:36.243Z,5.17
2019-05-30T17:23:06.718Z,4.50
2019-05-30T17:25:37.198Z,4.53
2019-05-30T17:28:07.662Z,4.13
2019-05-30T17:30:38.157Z,4.30
2019-05-30T17:33:08.596Z,4.60
2019-05-30T17:35:39.200Z,4.60
2019-05-30T17:38:09.647Z,4.47
2019-05-30T17:40:45.055Z,4.50
2019-05-30T17:43:12.322Z,7.20
2019-05-30T17:45:42.830Z,5.03
2019-05-30T17:48:16.533Z,9.07
2019-05-30T17:50:45.496Z,5.60
2019-05-30T17:53:16.231Z,7.30
2019-05-30T17:55:46.704Z,7.70
2019-05-30T17:58:17.215Z,6.67
2019-05-30T18:00:47.700Z,4.40
2019-05-30T18:03:18.257Z,4.60
2019-05-30T18:05:48.737Z,4.03
2019-05-30T18:08:19.202Z,4.67
2019-05-30T18:10:53.775Z,4.63
2019-05-30T18:13:22.829Z,4.00
2019-05-30T18:15:53.532Z,4.63
2019-05-30T18:18:25.205Z,4.80
2019-05-30T18:20:55.812Z,4.23
2019-05-30T18:23:27.499Z,4.30
2019-05-30T18:25:58.021Z,4.40
2019-05-30T18:28:27.829Z,4.00
2019-05-30T18:30:58.309Z,4.20
2019-05-30T18:33:28.752Z,4.60
2019-05-30T18:35:59.868Z,4.23
2019-05-30T18:38:30.542Z,3.97
2019-05-30T18:41:11.040Z,3.70
2019-05-30T18:43:33.358Z,4.30
2019-05-30T18:46:03.859Z,4.20
2019-05-30T18:48:34.314Z,4.20
2019-05-30T18:51:04.920Z,4.60
2019-05-30T18:53:36.645Z,4.30
2019-05-30T18:56:07.392Z,4.53
2019-05-30T18:58:37.895Z,4.80
2019-05-30T19:01:08.404Z,4.80
2019-05-30T19:03:38.883Z,4.30
2019-05-30T19:06:09.497Z,5.20
2019-05-30T19:08:39.973Z,5.50
2019-05-30T19:11:26.383Z,6.10
2019-05-30T19:13:42.603Z,5.13
2019-05-30T19:16:13.093Z,4.73
2019-05-30T19:18:43.536Z,5.53
2019-05-30T19:21:14.025Z,5.00
2019-05-30T19:23:44.488Z,4.97
2019-05-30T19:26:14.982Z,5.67
2019-05-30T19:28:45.430Z,4.80
2019-05-30T19:31:16.022Z,5.40
2019-05-30T19:33:46.468Z,5.33
2019-05-30T19:36:17.045Z,4.90
2019-05-30T19:38:47.496Z,5.27
2019-05-30T19:41:17.976Z,5.27
2019-05-30T19:43:48.440Z,5.37
2019-05-30T19:46:18.936Z,5.40
2019-05-30T19:48:49.401Z,5.40
2019-05-30T19:51:21.090Z,4.93
2019-05-30T19:53:51.655Z,5.27
2019-05-30T19:56:22.167Z,5.30
2019-05-30T19:58:52.696Z,5.07
2019-05-30T20:01:23.196Z,5.83
2019-05-30T20:03:53.650Z,5.20
2019-05-30T20:06:24.977Z,5.83
2019-05-30T20:08:56.133Z,5.63
2019-05-30T20:11:26.627Z,6.13
2019-05-30T20:13:57.073Z,6.67
2019-05-30T20:16:27.533Z,7.10
2019-05-30T20:18:58.022Z,6.83
2019-05-30T20:21:28.516Z,6.90
2019-05-30T20:23:59.627Z,6.53
2019-05-30T20:26:30.241Z,7.30
2019-05-30T20:29:00.731Z,7.00
2019-05-30T20:31:31.211Z,6.90
2019-05-30T20:34:01.702Z,7.20
2019-05-30T20:36:32.149Z,6.93
2019-05-30T20:39:02.645Z,6.40
2019-05-30T20:41:33.150Z,6.43
2019-05-30T20:44:03.709Z,6.40
2019-05-30T20:46:34.837Z,6.13
2019-05-30T20:49:07.022Z,6.50
2019-05-30T20:51:38.679Z,6.50
2019-05-30T20:54:09.689Z,6.10
2019-05-30T20:56:41.437Z,6.30
2019-05-30T20:59:12.011Z,6.93
2019-05-30T21:01:43.771Z,6.87
2019-05-30T21:04:14.312Z,7.03
2019-05-30T21:06:45.531Z,6.70
2019-05-30T21:09:28.357Z,6.23
2019-05-30T21:11:51.724Z,6.87
2019-05-30T21:14:27.430Z,6.87
2019-05-30T21:16:56.768Z,5.90
2019-05-30T21:19:27.216Z,6.00
2019-05-30T21:21:57.631Z,6.23
2019-05-30T21:24:28.182Z,6.20
2019-05-30T21:26:58.590Z,7.23
2019-05-30T21:29:29.052Z,6.83
2019-05-30T21:31:59.499Z,6.70
2019-05-30T21:34:30.013Z,6.83
2019-05-30T21:37:00.427Z,6.97
2019-05-30T21:39:31.123Z,6.27
2019-05-30T21:42:01.568Z,6.23
2019-05-30T21:44:31.986Z,6.40
2019-05-30T21:47:02.441Z,5.57
2019-05-30T21:49:32.872Z,5.80
2019-05-30T21:52:03.278Z,6.40
2019-05-30T21:54:33.686Z,6.27
2019-05-30T21:57:04.194Z,5.77
2019-05-30T21:59:34.735Z,5.83
2019-05-30T22:02:05.287Z,5.33
2019-05-30T22:04:35.790Z,5.67
2019-05-30T22:07:06.210Z,5.80
2019-05-30T22:09:36.636Z,6.10
2019-05-30T22:12:07.186Z,5.93
2019-05-30T22:14:37.686Z,5.63
2019-05-30T22:17:08.186Z,6.30
2019-05-30T22:19:38.651Z,6.30
2019-05-30T22:22:09.120Z,6.00
2019-05-30T22:24:39.544Z,6.17
2019-05-30T22:27:10.050Z,6.10
2019-05-30T22:29:40.609Z,5.63
2019-05-30T22:32:11.088Z,6.07
2019-05-30T22:34:42.729Z,5.83
2019-05-30T22:37:14.271Z,5.90
2019-05-30T22:39:44.887Z,6.43
2019-05-30T22:42:15.287Z,6.57
2019-05-30T22:44:46.041Z,6.60
2019-05-30T22:47:16.535Z,5.87
2019-05-30T22:49:46.933Z,5.20
2019-05-30T22:52:17.457Z,5.23
2019-05-30T22:54:49.000Z,5.20
2019-05-30T22:57:19.713Z,4.60
2019-05-30T22:59:50.961Z,5.23
2019-05-30T23:02:21.472Z,5.80
2019-05-30T23:04:52.276Z,6.67
2019-05-30T23:07:22.786Z,6.20
2019-05-30T23:09:53.993Z,5.90
2019-05-30T23:12:24.522Z,6.40
2019-05-30T23:14:54.983Z,5.30
2019-05-30T23:17:25.494Z,5.60
2019-05-30T23:19:56.871Z,5.13
2019-05-30T23:22:27.352Z,5.00
2019-05-30T23:24:57.831Z,5.27
2019-05-30T23:27:28.283Z,5.13
2019-05-30T23:29:58.758Z,4.70
2019-05-30T23:32:29.237Z,6.87
2019-05-30T23:34:59.699Z,5.10
2019-05-30T23:37:30.157Z,4.83
2019-05-30T23:40:00.660Z,5.20
2019-05-30T23:42:31.143Z,4.93
2019-05-30T23:45:01.606Z,5.40
2019-05-30T23:47:32.180Z,5.53
2019-05-30T23:50:02.724Z,5.53
2019-05-30T23:52:33.171Z,5.70
2019-05-30T23:55:03.761Z,5.23
2019-05-30T23:57:34.202Z,5.73
